Time;durP1;ratioP1;P1;durP2;ratioP2;P2;SDS_P1;SDS_P2;PMS_P1;PMS_P2;Temp;Humidity;BMP_temperature;BMP_pressure;BME280_temperature;BME280_humidity;BME280_pressure;Samples;Min_cycle;Max_cycle;Signal;HPM_P1;HPM_P2
2022/11/30 00:00:52;;;;;;;12.30;7.30;;;;;;;2.98;100.00;101563.16;5006613;28;20053;-75
2022/11/30 00:03:17;;;;;;;15.80;7.90;;;;;;;2.86;100.00;101540.09;5002836;28;20058;-77
2022/11/30 00:05:43;;;;;;;16.35;9.68;;;;;;;2.14;100.00;101419.94;5006476;28;20084;-77
2022/11/30 00:08:08;;;;;;;18.48;9.63;;;;;;;2.99;100.00;101575.28;5008924;28;20409;-78
2022/11/30 00:10:34;;;;;;;14.60;7.63;;;;;;;3.01;100.00;101596.13;4998186;28;20050;-76
2022/11/30 00:12:59;;;;;;;15.57;7.85;;;;;;;3.13;100.00;101582.03;5009133;28;20121;-75
2022/11/30 00:15:25;;;;;;;15.32;9.70;;;;;;;2.33;100.00;101440.75;4995802;28;20046;-77
2022/11/30 00:17:55;;;;;;;16.48;8.93;;;;;;;2.31;100.00;101437.19;5001351;28;20069;-75
2022/11/30 00:20:21;;;;;;;15.90;10.40;;;;;;;2.86;100.00;101544.41;5000958;28;20551;-75
2022/11/30 00:22:46;;;;;;;16.83;8.05;;;;;;;2.08;100.00;101414.44;5009558;28;20038;-74
2022/11/30 00:25:12;;;;;;;12.68;6.50;;;;;;;2.10;100.00;101412.81;5009059;28;20053;-74
2022/11/30 00:27:37;;;;;;;18.65;9.48;;;;;;;2.77;100.00;101555.19;5009088;28;20177;-75
2022/11/30 00:30:04;;;;;;;20.40;9.05;;;;;;;2.69;100.00;101526.31;5008684;28;20041;-75
2022/11/30 00:32:29;;;;;;;17.27;9.57;;;;;;;2.18;100.00;101420.97;5010648;28;20045;-74
2022/11/30 00:34:55;;;;;;;14.38;7.90;;;;;;;3.03;100.00;101553.00;5015773;28;20026;-76
2022/11/30 00:37:21;;;;;;;16.67;9.60;;;;;;;2.96;100.00;101555.28;5023270;28;20053;-76
2022/11/30 00:39:46;;;;;;;16.65;7.82;;;;;;;2.39;100.00;101450.56;5019089;28;20807;-77
2022/11/30 00:42:12;;;;;;;13.25;7.63;;;;;;;2.96;100.00;101554.41;5008627;28;20057;-74
2022/11/30 00:44:37;;;;;;;19.30;8.60;;;;;;;2.82;100.00;101522.63;5008703;28;20065;-74
2022/11/30 00:47:03;;;;;;;18.45;8.32;;;;;;;2.97;100.00;101556.16;5005871;28;20034;-76
2022/11/30 00:49:29;;;;;;;18.92;10.98;;;;;;;2.89;100.00;101544.56;5008820;28;20470;-75
2022/11/30 00:51:54;;;;;;;18.63;9.05;;;;;;;2.94;100.00;101548.25;5008353;28;20049;-78
2022/11/30 00:54:20;;;;;;;13.38;9.10;;;;;;;2.23;100.00;101406.59;5007063;28;20493;-78
2022/11/30 00:56:45;;;;;;;18.17;10.63;;;;;;;2.84;100.00;101510.63;5006589;28;20049;-76
2022/11/30 00:59:10;;;;;;;16.20;8.55;;;;;;;2.80;100.00;101511.28;5008772;28;20034;-76
2022/11/30 01:01:36;;;;;;;12.85;7.53;;;;;;;2.86;100.00;101529.75;5007623;28;20575;-76
2022/11/30 01:04:02;;;;;;;17.17;8.98;;;;;;;3.12;100.00;101527.53;5006698;28;20050;-76
2022/11/30 01:06:28;;;;;;;14.23;7.75;;;;;;;2.41;100.00;101438.56;5006656;28;20054;-77
2022/11/30 01:08:53;;;;;;;16.77;7.00;;;;;;;2.96;100.00;101557.88;5008239;28;20498;-77
2022/11/30 01:11:23;;;;;;;19.75;9.00;;;;;;;3.03;100.00;101553.88;5008291;28;20046;-76
2022/11/30 01:13:49;;;;;;;14.98;8.70;;;;;;;3.09;100.00;101551.59;5008679;28;20619;-76
2022/11/30 01:16:18;;;;;;;19.38;7.75;;;;;;;2.77;100.00;101518.91;5005869;28;20049;-76
2022/11/30 01:18:45;;;;;;;15.07;7.03;;;;;;;2.94;100.00;101532.69;5005414;28;20084;-75
2022/11/30 01:21:13;;;;;;;18.23;9.48;;;;;;;1.49;100.00;101281.25;5004551;28;20771;-76
2022/11/30 01:23:39;;;;;;;18.98;9.63;;;;;;;2.92;100.00;101539.50;5006077;28;20038;-75
2022/11/30 01:26:05;;;;;;;17.70;8.48;;;;;;;2.11;100.00;101393.91;5005085;28;20594;-74
2022/11/30 01:28:31;;;;;;;14.20;9.05;;;;;;;2.89;100.00;101536.78;5006016;28;20045;-76
2022/11/30 01:31:05;;;;;;;21.73;8.15;;;;;;;2.17;100.00;101407.16;5003905;28;20050;-77
2022/11/30 01:33:31;;;;;;;17.73;8.18;;;;;;;2.75;100.00;101512.75;5000520;28;20053;-76
2022/11/30 01:36:17;;;;;;;17.13;9.23;;;;;;;2.84;100.00;101521.00;5007756;28;20515;-75
2022/11/30 01:38:45;;;;;;;14.55;9.80;;;;;;;1.98;100.00;101366.50;5005927;28;20054;-77
2022/11/30 01:41:14;;;;;;;16.42;7.68;;;;;;;2.82;100.00;101504.47;5007931;28;20033;-77
2022/11/30 01:43:44;;;;;;;23.23;7.97;;;;;;;3.04;100.00;101508.09;5005969;28;20048;-77
2022/11/30 01:46:27;;;;;;;17.42;7.35;;;;;;;3.17;100.00;101516.53;5004260;28;20096;-76
2022/11/30 01:49:08;;;;;;;15.90;8.98;;;;;;;2.83;100.00;101520.91;5007348;28;20123;-78
2022/11/30 01:51:39;;;;;;;16.05;8.43;;;;;;;2.97;100.00;101517.28;5007371;28;20053;-77
2022/11/30 01:54:09;;;;;;;15.40;8.57;;;;;;;2.29;100.00;101428.50;5002301;28;20062;-77
2022/11/30 01:56:39;;;;;;;14.82;7.40;;;;;;;2.13;100.00;101388.78;5004709;28;20041;-76
2022/11/30 01:59:05;;;;;;;16.27;7.88;;;;;;;2.90;100.00;101513.53;5007597;28;20037;-77
2022/11/30 02:01:30;;;;;;;11.80;6.38;;;;;;;2.81;100.00;101492.34;5006530;28;20042;-77
2022/11/30 02:04:02;;;;;;;14.05;6.63;;;;;;;2.03;100.00;101372.78;5020019;28;20095;-77
2022/11/30 02:06:28;;;;;;;14.55;6.82;;;;;;;2.68;100.00;101483.06;5007381;28;20046;-78
2022/11/30 02:08:54;;;;;;;12.10;5.82;;;;;;;2.77;100.00;101500.78;5005587;28;20804;-75
2022/11/30 02:11:20;;;;;;;12.73;5.78;;;;;;;2.77;100.00;101499.91;5004692;28;20033;-76
2022/11/30 02:14:17;;;;;;;9.73;5.40;;;;;;;2.60;100.00;101476.63;5007863;28;20038;-75
2022/11/30 02:16:46;;;;;;;9.75;5.43;;;;;;;2.81;100.00;101518.25;5006866;28;20085;-77
2022/11/30 02:19:30;;;;;;;11.45;7.00;;;;;;;2.74;100.00;101498.94;5006588;28;20050;-77
2022/11/30 02:22:09;;;;;;;10.90;6.07;;;;;;;2.82;100.00;101507.06;5006835;28;20655;-74
2022/11/30 02:24:43;;;;;;;8.38;4.93;;;;;;;2.88;100.00;101499.59;5005755;28;20050;-76
2022/11/30 02:27:14;;;;;;;13.23;6.25;;;;;;;2.77;100.00;101497.31;5005875;28;20105;-73
2022/11/30 02:29:45;;;;;;;13.13;6.95;;;;;;;2.70;100.00;101501.28;5006558;28;20038;-76
2022/11/30 02:32:31;;;;;;;14.23;6.65;;;;;;;2.78;100.00;101512.91;5007434;28;20389;-77
2022/11/30 02:35:00;;;;;;;15.98;5.30;;;;;;;2.68;100.00;101505.50;5026987;28;20071;-75
2022/11/30 02:37:27;;;;;;;9.52;4.22;;;;;;;2.77;100.00;101520.63;5023759;28;20053;-75
2022/11/30 02:39:53;;;;;;;11.45;4.63;;;;;;;2.65;100.00;101510.53;5003391;28;20138;-78
2022/11/30 02:42:18;;;;;;;8.35;4.53;;;;;;;2.23;100.00;101415.22;5005721;28;20062;-74
2022/11/30 02:44:47;;;;;;;14.57;4.70;;;;;;;2.39;100.00;101455.72;5005831;28;20042;-73
2022/11/30 02:47:58;;;;;;;8.35;4.38;;;;;;;3.03;100.00;101527.97;5005671;28;20045;-76
2022/11/30 02:50:29;;;;;;;11.35;3.83;;;;;;;2.11;100.00;101391.31;5003837;28;20080;-76
2022/11/30 02:52:55;;;;;;;8.48;4.65;;;;;;;2.14;100.00;101377.63;4998566;28;20044;-77
2022/11/30 02:55:21;;;;;;;8.20;5.03;;;;;;;2.79;100.00;101508.63;5005800;28;20078;-77
2022/11/30 02:57:47;;;;;;;9.70;4.65;;;;;;;2.71;100.00;101519.47;5002582;28;20185;-77
2022/11/30 03:00:13;;;;;;;6.78;4.05;;;;;;;2.72;100.00;101479.81;5005490;28;20045;-77
2022/11/30 03:02:40;;;;;;;10.65;5.40;;;;;;;2.00;100.00;101351.94;4999275;28;20054;-76
2022/11/30 03:05:07;;;;;;;8.55;4.40;;;;;;;2.79;100.00;101524.19;5003041;28;20117;-76
2022/11/30 03:07:32;;;;;;;8.02;5.05;;;;;;;1.83;100.00;101401.97;5003570;28;20179;-78
2022/11/30 03:09:59;;;;;;;8.07;4.00;;;;;;;2.73;100.00;101533.41;4997254;28;20058;-78
2022/11/30 03:12:24;;;;;;;13.20;5.47;;;;;;;2.47;100.00;101503.59;5002132;28;20050;-78
2022/11/30 03:14:50;;;;;;;12.48;5.90;;;;;;;2.60;100.00;101544.00;4992633;28;20080;-75
2022/11/30 03:17:16;;;;;;;12.93;6.43;;;;;;;2.73;100.00;101527.34;5005532;28;20393;-77
2022/11/30 03:19:41;;;;;;;10.15;6.32;;;;;;;2.48;100.00;101487.28;5006015;28;20104;-75
2022/11/30 03:22:07;;;;;;;10.02;4.65;;;;;;;2.82;100.00;101540.75;4999989;28;20052;-76
2022/11/30 03:24:32;;;;;;;10.32;6.32;;;;;;;2.83;100.00;101539.06;5005578;28;20089;-76
2022/11/30 03:26:58;;;;;;;11.13;5.97;;;;;;;2.54;100.00;101529.00;5006348;28;20612;-76
2022/11/30 03:29:23;;;;;;;9.23;5.82;;;;;;;2.14;100.00;101445.84;5005119;28;20065;-76
2022/11/30 03:31:49;;;;;;;7.80;5.45;;;;;;;1.81;100.00;101409.66;5005673;28;20529;-75
2022/11/30 03:34:14;;;;;;;11.40;6.28;;;;;;;1.75;100.00;101382.56;5000494;28;20152;-76
2022/11/30 03:36:39;;;;;;;10.27;5.45;;;;;;;2.04;100.00;101415.13;5009471;28;20129;-76
2022/11/30 03:39:05;;;;;;;11.95;7.75;;;;;;;2.67;100.00;101559.03;5006261;28;20080;-75
2022/11/30 03:41:30;;;;;;;8.63;5.53;;;;;;;2.63;100.00;101545.84;5008612;28;20030;-76
2022/11/30 03:43:56;;;;;;;11.45;6.18;;;;;;;2.65;100.00;101506.25;5008497;28;20756;-77
2022/11/30 03:46:22;;;;;;;16.08;6.75;;;;;;;1.91;100.00;101411.00;5002942;28;20173;-76
2022/11/30 03:48:48;;;;;;;10.70;6.00;;;;;;;2.44;100.00;101505.19;4992612;28;20102;-74
2022/11/30 03:51:13;;;;;;;10.80;6.40;;;;;;;2.37;100.00;101467.72;5008872;28;20371;-75
2022/11/30 03:53:39;;;;;;;14.10;6.57;;;;;;;2.64;100.00;101520.00;5000811;28;20828;-77
2022/11/30 03:56:08;;;;;;;11.02;5.68;;;;;;;2.54;100.00;101517.78;5007839;28;20045;-78
2022/11/30 03:58:34;;;;;;;9.05;6.20;;;;;;;2.45;100.00;101468.97;5009121;28;20132;-77
2022/11/30 04:01:00;;;;;;;16.45;5.43;;;;;;;1.90;100.00;101376.47;5006569;28;20065;-78
2022/11/30 04:03:26;;;;;;;9.63;5.55;;;;;;;1.98;100.00;101435.50;5005781;28;20563;-77
2022/11/30 04:05:51;;;;;;;14.63;7.43;;;;;;;1.65;100.00;101358.81;5008663;28;20054;-76
2022/11/30 04:08:17;;;;;;;13.50;7.20;;;;;;;1.94;100.00;101390.44;5011869;28;20501;-74
2022/11/30 04:10:46;;;;;;;10.27;5.93;;;;;;;2.68;100.00;101521.94;5010364;28;20532;-76
2022/11/30 04:13:11;;;;;;;10.63;5.68;;;;;;;2.41;100.00;101468.75;5009231;28;20053;-77
2022/11/30 04:15:37;;;;;;;10.85;7.10;;;;;;;1.73;100.00;101389.38;5007963;28;20398;-76
2022/11/30 04:18:02;;;;;;;14.52;6.07;;;;;;;1.90;100.00;101428.25;5013450;28;20437;-78
2022/11/30 04:20:28;;;;;;;13.57;7.10;;;;;;;1.95;100.00;101412.06;5008373;28;20083;-78
2022/11/30 04:22:56;;;;;;;15.38;7.15;;;;;;;2.43;100.00;101537.94;5002201;28;20037;-77
2022/11/30 04:25:22;;;;;;;11.25;7.22;;;;;;;2.51;100.00;101518.50;5004698;28;20569;-77
2022/11/30 04:27:47;;;;;;;11.23;6.30;;;;;;;2.58;100.00;101555.97;5001065;28;20103;-76
2022/11/30 04:30:13;;;;;;;14.00;6.07;;;;;;;1.23;100.00;101306.66;4993821;28;20441;-78
2022/11/30 04:32:39;;;;;;;16.70;7.10;;;;;;;1.92;100.00;101441.28;5008572;28;20034;-77
2022/11/30 04:35:05;;;;;;;18.42;5.28;;;;;;;2.51;100.00;101553.88;5010107;28;20030;-78
2022/11/30 04:37:30;;;;;;;9.40;6.00;;;;;;;2.45;100.00;101540.63;5007360;28;20053;-77
2022/11/30 04:39:56;;;;;;;12.75;6.57;;;;;;;2.52;100.00;101568.59;5007546;28;20520;-77
2022/11/30 04:42:21;;;;;;;13.38;6.65;;;;;;;2.33;100.00;101534.00;5007960;28;20042;-77
2022/11/30 04:44:47;;;;;;;13.18;7.68;;;;;;;2.46;100.00;101539.81;5007231;28;20053;-74
2022/11/30 04:47:12;;;;;;;11.75;5.55;;;;;;;1.60;100.00;101386.16;4999633;28;20042;-75
2022/11/30 04:49:38;;;;;;;12.15;7.05;;;;;;;2.35;100.00;101528.91;4988978;28;20553;-75
2022/11/30 04:52:03;;;;;;;9.23;4.20;;;;;;;2.48;100.00;101557.22;5004299;28;20486;-75
2022/11/30 04:54:29;;;;;;;8.00;4.82;;;;;;;1.82;100.00;101433.81;5007244;28;20052;-77
2022/11/30 04:56:54;;;;;;;8.57;3.92;;;;;;;1.59;100.00;101397.31;5007563;28;20383;-74
2022/11/30 04:59:20;;;;;;;9.10;5.03;;;;;;;2.56;100.00;101559.31;5007361;28;20810;-76
2022/11/30 05:01:45;;;;;;;9.00;4.85;;;;;;;1.91;100.00;101423.94;5007530;28;20029;-74
2022/11/30 05:04:11;;;;;;;10.57;5.25;;;;;;;2.56;100.00;101544.66;5006652;28;20548;-75
2022/11/30 05:06:36;;;;;;;9.20;5.20;;;;;;;1.69;100.00;101393.50;5007616;28;20916;-74
2022/11/30 05:09:02;;;;;;;8.38;5.80;;;;;;;1.79;100.00;101413.84;5007985;28;20045;-75
2022/11/30 05:11:27;;;;;;;12.70;6.60;;;;;;;2.48;100.00;101543.34;5006441;28;20038;-76
2022/11/30 05:13:52;;;;;;;6.78;3.65;;;;;;;2.36;100.00;101514.25;5007892;28;20042;-76
2022/11/30 05:16:18;;;;;;;8.15;4.13;;;;;;;1.94;100.00;101438.75;5007924;28;20056;-77
2022/11/30 05:18:43;;;;;;;9.68;3.90;;;;;;;1.88;100.00;101431.56;5006816;28;20050;-78
2022/11/30 05:21:09;;;;;;;9.60;4.53;;;;;;;2.22;100.00;101487.63;5007531;28;20045;-75
2022/11/30 05:23:34;;;;;;;5.97;2.95;;;;;;;2.58;100.00;101545.63;5007640;28;20072;-78
2022/11/30 05:26:03;;;;;;;9.68;3.90;;;;;;;2.49;100.00;101543.44;5008252;28;20520;-77
2022/11/30 05:28:29;;;;;;;7.43;3.78;;;;;;;1.64;100.00;101394.97;5006962;28;20073;-77
2022/11/30 05:30:54;;;;;;;7.25;3.15;;;;;;;2.51;100.00;101530.56;5002429;28;20115;-76
2022/11/30 05:33:19;;;;;;;7.82;3.60;;;;;;;1.65;100.00;101401.91;5005278;28;20082;-74
2022/11/30 05:35:45;;;;;;;11.32;3.10;;;;;;;2.23;100.00;101490.31;5003195;28;20069;-74
2022/11/30 05:38:10;;;;;;;8.15;3.92;;;;;;;1.98;100.00;101448.44;5007861;28;20064;-74
2022/11/30 05:40:36;;;;;;;6.72;3.33;;;;;;;2.49;100.00;101527.00;5007264;28;20041;-77
2022/11/30 05:43:03;;;;;;;7.65;3.60;;;;;;;2.66;100.00;101566.72;5007253;28;20490;-74
2022/11/30 05:45:29;;;;;;;8.13;3.42;;;;;;;2.44;100.00;101534.56;5005929;28;20176;-75
2022/11/30 05:47:54;;;;;;;5.40;2.97;;;;;;;2.07;100.00;101479.97;5007344;28;20569;-75
2022/11/30 05:50:20;;;;;;;9.13;2.78;;;;;;;1.87;100.00;101433.28;5004967;28;20049;-75
2022/11/30 05:52:46;;;;;;;5.78;2.42;;;;;;;1.38;100.00;101365.13;5007485;28;20434;-75
2022/11/30 05:55:11;;;;;;;9.02;3.30;;;;;;;2.43;100.00;101557.78;5002705;28;20545;-75
2022/11/30 05:57:37;;;;;;;10.50;4.88;;;;;;;2.33;100.00;101541.75;5007241;28;20172;-76
2022/11/30 06:00:06;;;;;;;5.57;3.03;;;;;;;2.47;100.00;101551.94;5006156;28;20064;-75
2022/11/30 06:02:31;;;;;;;7.50;3.97;;;;;;;1.76;100.00;101462.88;5008890;28;20121;-75
2022/11/30 06:04:56;;;;;;;8.85;3.72;;;;;;;1.79;100.00;101470.78;5007568;28;20514;-75
2022/11/30 06:07:22;;;;;;;9.25;5.18;;;;;;;1.70;100.00;101459.94;5004461;28;20061;-75
2022/11/30 06:09:47;;;;;;;5.20;2.92;;;;;;;2.23;100.00;101554.16;5006925;28;20120;-74
2022/11/30 06:12:13;;;;;;;7.07;3.08;;;;;;;1.55;100.00;101441.94;5006055;28;20049;-75
2022/11/30 06:14:38;;;;;;;10.82;3.88;;;;;;;1.43;100.00;101426.66;5007441;28;20060;-76
2022/11/30 06:17:04;;;;;;;7.82;3.35;;;;;;;2.16;100.00;101558.13;5007901;28;20088;-76
2022/11/30 06:19:29;;;;;;;8.18;4.05;;;;;;;2.34;100.00;101591.84;5021486;28;20042;-76
2022/11/30 06:21:54;;;;;;;10.32;4.72;;;;;;;2.22;100.00;101566.19;5022754;28;20061;-75
2022/11/30 06:24:20;;;;;;;5.93;3.20;;;;;;;1.57;100.00;101436.81;5011034;28;20544;-76
2022/11/30 06:26:45;;;;;;;10.50;3.55;;;;;;;1.67;100.00;101464.97;4996852;28;20418;-76
2022/11/30 06:29:11;;;;;;;8.25;5.20;;;;;;;1.63;100.00;101463.03;4998670;28;20402;-77
2022/11/30 06:31:36;;;;;;;10.10;4.80;;;;;;;2.36;100.00;101599.72;5004427;28;20104;-74
2022/11/30 06:34:02;;;;;;;12.30;4.05;;;;;;;1.57;100.00;101445.50;4999411;28;20540;-76
2022/11/30 06:36:27;;;;;;;8.23;3.70;;;;;;;1.77;100.00;101506.03;4999981;28;20042;-76
2022/11/30 06:38:54;;;;;;;12.25;6.03;;;;;;;1.51;100.00;101446.84;4988821;28;20050;-77
2022/11/30 06:41:19;;;;;;;20.80;7.75;;;;;;;2.42;100.00;101613.00;4999720;28;20600;-75
2022/11/30 06:43:46;;;;;;;13.75;5.20;;;;;;;2.42;100.00;101618.19;5006855;28;20034;-77
2022/11/30 06:46:11;;;;;;;8.07;4.75;;;;;;;2.36;100.00;101607.47;4997880;28;20092;-74
2022/11/30 06:48:37;;;;;;;8.57;4.45;;;;;;;1.59;100.00;101455.91;5001685;28;20054;-76
2022/11/30 06:51:07;;;;;;;8.20;4.38;;;;;;;2.42;100.00;101605.22;4998888;28;20049;-76
2022/11/30 06:53:33;;;;;;;9.20;5.90;;;;;;;2.44;100.00;101612.25;5004083;28;20057;-76
2022/11/30 06:56:02;;;;;;;9.05;5.45;;;;;;;1.66;100.00;101466.69;5006207;28;20037;-74
2022/11/30 06:58:28;;;;;;;8.90;5.25;;;;;;;2.56;100.00;101608.53;5005497;28;20050;-76
2022/11/30 07:00:54;;;;;;;23.70;7.15;;;;;;;2.44;100.00;101612.25;5000131;28;20109;-77
2022/11/30 07:03:19;;;;;;;12.02;5.55;;;;;;;1.88;100.00;101504.91;5004579;28;20125;-74
2022/11/30 07:05:45;;;;;;;17.55;7.25;;;;;;;1.95;100.00;101500.06;5006158;28;20127;-74
2022/11/30 07:08:13;;;;;;;12.25;5.72;;;;;;;1.95;100.00;101497.47;5010313;28;20034;-76
2022/11/30 07:10:40;;;;;;;8.65;5.63;;;;;;;1.85;100.00;101491.81;5002837;28;20072;-75
2022/11/30 07:13:09;;;;;;;8.27;5.82;;;;;;;1.83;100.00;101511.53;5007335;28;20072;-75
2022/11/30 07:15:35;;;;;;;11.50;6.28;;;;;;;2.58;100.00;101612.09;5007370;28;20060;-76
2022/11/30 07:18:00;;;;;;;10.48;5.55;;;;;;;1.80;100.00;101476.84;5008282;28;20104;-75
2022/11/30 07:20:26;;;;;;;10.70;6.20;;;;;;;2.76;100.00;101638.94;5006407;28;20539;-74
2022/11/30 07:22:54;;;;;;;10.52;5.07;;;;;;;2.49;100.00;101605.63;5010644;28;20470;-76
2022/11/30 07:28:07;;;;;;;11.65;6.85;;;;;;;2.11;100.00;101544.06;4990054;28;20429;-76
2022/11/30 07:30:33;;;;;;;9.35;4.65;;;;;;;2.67;100.00;101625.50;4995994;28;20232;-77
2022/11/30 07:32:58;;;;;;;16.38;4.40;;;;;;;1.89;100.00;101487.69;5004672;28;20381;-78
2022/11/30 07:35:23;;;;;;;12.05;5.90;;;;;;;2.94;100.00;101634.69;5008125;28;20105;-76
2022/11/30 07:37:49;;;;;;;11.98;7.00;;;;;;;2.52;100.00;101581.56;5004223;28;20043;-75
2022/11/30 07:40:14;;;;;;;11.13;5.95;;;;;;;2.67;100.00;101644.53;5001202;28;20486;-77
2022/11/30 07:42:40;;;;;;;32.20;7.05;;;;;;;2.27;100.00;101550.91;5001874;28;20795;-75
2022/11/30 07:45:06;;;;;;;16.33;7.57;;;;;;;2.07;100.00;101518.81;5001317;28;20080;-75
2022/11/30 07:47:32;;;;;;;10.55;6.15;;;;;;;2.74;100.00;101651.81;5000294;28;20038;-79
2022/11/30 07:49:58;;;;;;;9.00;5.07;;;;;;;2.88;100.00;101659.41;5005682;28;20759;-76
2022/11/30 07:52:24;;;;;;;13.65;5.68;;;;;;;2.53;100.00;101606.69;5007905;28;20116;-77
2022/11/30 07:54:49;;;;;;;10.40;6.70;;;;;;;2.78;100.00;101659.75;5009434;28;20486;-78
2022/11/30 07:57:15;;;;;;;11.00;6.07;;;;;;;2.15;100.00;101556.34;5008841;28;20398;-75
2022/11/30 07:59:40;;;;;;;17.85;5.70;;;;;;;2.01;100.00;101516.78;5009341;28;20429;-75
2022/11/30 08:02:06;;;;;;;19.80;7.22;;;;;;;2.59;100.00;101653.59;5007457;28;20489;-76
2022/11/30 08:04:31;;;;;;;12.50;6.85;;;;;;;2.14;100.00;101551.97;5008743;28;20799;-78
2022/11/30 08:06:57;;;;;;;10.95;6.35;;;;;;;2.06;100.00;101540.31;5005789;28;20058;-76
2022/11/30 08:09:23;;;;;;;12.65;6.72;;;;;;;1.80;100.00;101493.28;5009289;28;20042;-76
2022/11/30 08:11:49;;;;;;;11.43;6.95;;;;;;;2.69;100.00;101668.84;5008899;28;20057;-76
2022/11/30 08:14:14;;;;;;;10.07;6.03;;;;;;;1.82;100.00;101514.91;5008303;28;20450;-76
2022/11/30 08:16:43;;;;;;;9.98;6.25;;;;;;;2.16;100.00;101544.31;5008259;28;20111;-77
2022/11/30 08:19:08;;;;;;;14.15;7.03;;;;;;;2.60;100.00;101615.63;5006789;28;20871;-77
2022/11/30 08:21:34;;;;;;;11.90;7.30;;;;;;;2.81;100.00;101615.84;5008375;28;20084;-76
2022/11/30 08:23:59;;;;;;;10.82;5.93;;;;;;;1.93;100.00;101473.22;5004814;28;20046;-76
2022/11/30 08:26:29;;;;;;;11.00;5.15;;;;;;;1.66;100.00;101403.66;4993721;28;20061;-79
2022/11/30 08:28:55;;;;;;;10.68;5.60;;;;;;;2.95;100.00;101643.38;4995832;28;20041;-75
2022/11/30 08:31:34;;;;;;;35.88;5.95;;;;;;;2.90;100.00;101637.97;5005756;28;20080;-77
2022/11/30 08:34:06;;;;;;;9.13;5.57;;;;;;;2.67;100.00;101594.41;5007348;28;20544;-77
2022/11/30 08:36:32;;;;;;;14.65;6.70;;;;;;;2.19;100.00;101506.50;5007908;28;20129;-77
2022/11/30 08:38:59;;;;;;;10.35;4.63;;;;;;;3.23;100.00;101655.09;5008241;28;20060;-76
2022/11/30 08:41:26;;;;;;;8.55;4.40;;;;;;;2.32;100.00;101559.81;5007554;28;20120;-76
2022/11/30 08:43:52;;;;;;;19.88;7.28;;;;;;;2.23;100.00;101492.03;5009170;28;20030;-77
2022/11/30 08:46:20;;;;;;;14.75;4.57;;;;;;;2.08;100.00;101524.09;5004206;28;20486;-76
2022/11/30 08:48:46;;;;;;;10.15;5.18;;;;;;;3.05;100.00;101606.72;5002386;28;20053;-76
2022/11/30 08:51:14;;;;;;;17.33;6.38;;;;;;;3.00;100.00;101610.78;5006670;28;20088;-76
2022/11/30 08:53:40;;;;;;;11.52;6.63;;;;;;;3.21;100.00;101641.16;5006188;28;20165;-75
2022/11/30 08:56:09;;;;;;;10.25;4.75;;;;;;;2.90;100.00;101595.56;5004878;28;20057;-76
2022/11/30 08:58:36;;;;;;;5.70;3.25;;;;;;;2.73;100.00;101536.00;4999408;28;20421;-75
2022/11/30 09:01:10;;;;;;;14.25;5.70;;;;;;;2.82;100.00;101556.31;5005465;28;20362;-76
2022/11/30 09:03:36;;;;;;;14.43;6.00;;;;;;;3.07;100.00;101596.44;5002938;28;20128;-75
2022/11/30 09:06:04;;;;;;;10.75;3.67;;;;;;;3.01;100.00;101617.75;5006441;28;20064;-76
2022/11/30 09:08:30;;;;;;;28.75;5.30;;;;;;;2.96;100.00;101611.44;5007641;28;20063;-77
2022/11/30 09:10:56;;;;;;;6.80;4.30;;;;;;;2.58;100.00;101505.88;4998293;28;20038;-76
2022/11/30 09:13:21;;;;;;;6.30;3.35;;;;;;;2.30;100.00;101476.00;5007418;28;20401;-75
2022/11/30 09:15:53;;;;;;;7.80;4.75;;;;;;;2.38;100.00;101505.72;5006394;28;20041;-73
2022/11/30 09:18:19;;;;;;;7.63;4.20;;;;;;;2.99;100.00;101603.81;5002602;28;20053;-76
2022/11/30 09:20:44;;;;;;;18.73;3.50;;;;;;;2.98;100.00;101580.41;4994923;28;20776;-76
2022/11/30 09:23:10;;;;;;;4.68;3.10;;;;;;;2.17;100.00;101401.09;5004501;28;20403;-77
2022/11/30 09:25:35;;;;;;;8.43;5.50;;;;;;;3.05;100.00;101611.03;5007351;28;20406;-75
2022/11/30 09:28:04;;;;;;;11.48;4.88;;;;;;;2.35;100.00;101458.97;5001150;28;20049;-76
2022/11/30 09:30:29;;;;;;;6.18;3.83;;;;;;;3.10;100.00;101599.16;4995700;28;20075;-77
2022/11/30 09:32:54;;;;;;;9.52;4.05;;;;;;;2.94;100.00;101563.81;4997420;28;20366;-77
2022/11/30 09:35:20;;;;;;;12.18;6.22;;;;;;;3.07;100.00;101573.97;5003735;28;20092;-77
2022/11/30 09:37:45;;;;;;;12.40;4.65;;;;;;;2.40;100.00;101457.50;5001325;28;20052;-75
2022/11/30 09:40:12;;;;;;;7.88;3.70;;;;;;;2.38;100.00;101442.69;5001208;28;20053;-76
2022/11/30 09:43:02;;;;;;;8.07;4.65;;;;;;;2.55;100.00;101496.22;5000871;28;20119;-77
2022/11/30 09:45:30;;;;;;;9.75;4.55;;;;;;;2.60;100.00;101478.31;5003136;28;20065;-74
2022/11/30 09:48:08;;;;;;;10.07;4.30;;;;;;;3.02;100.00;101559.91;5000264;28;20053;-75
2022/11/30 09:50:41;;;;;;;9.20;4.38;;;;;;;3.17;100.00;101583.09;5001509;28;20046;-76
2022/11/30 09:53:17;;;;;;;6.80;3.28;;;;;;;2.47;100.00;101459.56;5004544;28;20033;-75
2022/11/30 09:55:43;;;;;;;8.75;4.13;;;;;;;3.09;100.00;101574.94;5003816;28;20053;-76
2022/11/30 09:58:34;;;;;;;10.27;4.38;;;;;;;3.15;100.00;101570.03;5002593;28;20049;-76
2022/11/30 10:01:03;;;;;;;6.88;3.45;;;;;;;3.57;100.00;101578.09;5004111;28;20050;-75
2022/11/30 10:03:29;;;;;;;8.77;4.60;;;;;;;3.13;100.00;101539.66;4999460;28;20470;-77
2022/11/30 10:06:07;;;;;;;7.25;4.25;;;;;;;2.92;100.00;101448.78;5004906;28;20153;-78
2022/11/30 10:08:45;;;;;;;9.25;4.45;;;;;;;2.80;100.00;101468.94;5003752;28;20068;-79
2022/11/30 10:11:22;;;;;;;10.70;4.75;;;;;;;3.52;100.00;101582.19;5005296;28;20049;-77
2022/11/30 10:14:01;;;;;;;10.02;5.20;;;;;;;3.04;100.00;101521.06;5004878;28;20123;-77
2022/11/30 10:17:01;;;;;;;7.43;2.17;;;;;;;2.98;100.00;101519.06;5000867;28;20054;-77
2022/11/30 10:20:15;;;;;;;8.10;4.35;;;;;;;2.64;100.00;101455.22;4998762;28;20406;-75
2022/11/30 10:23:08;;;;;;;13.43;4.68;;;;;;;3.24;100.00;101568.72;4982056;28;20124;-78
2022/11/30 10:25:44;;;;;;;6.13;3.50;;;;;;;3.53;100.00;101583.06;4995619;28;20050;-77
2022/11/30 10:28:16;;;;;;;14.10;4.05;;;;;;;3.03;100.00;101542.63;4997548;28;20061;-76
2022/11/30 10:30:42;;;;;;;9.20;3.35;;;;;;;2.16;100.00;101381.19;4995717;28;20115;-77
2022/11/30 10:33:28;;;;;;;8.10;3.97;;;;;;;3.29;100.00;101568.13;5002068;28;20070;-75
2022/11/30 10:36:03;;;;;;;9.65;4.40;;;;;;;3.32;100.00;101572.56;5006070;28;20044;-77
2022/11/30 10:38:39;;;;;;;6.30;3.85;;;;;;;3.53;100.00;101564.91;5027228;28;20065;-77
2022/11/30 10:41:18;;;;;;;8.20;3.72;;;;;;;3.18;100.00;101545.94;5000030;28;20065;-75
2022/11/30 10:43:48;;;;;;;5.63;2.67;;;;;;;3.33;100.00;101551.88;4998158;28;20532;-76
2022/11/30 10:46:20;;;;;;;4.93;2.83;;;;;;;2.70;100.00;101434.78;4993920;28;20053;-76
2022/11/30 10:48:57;;;;;;;14.77;5.05;;;;;;;3.60;100.00;101533.22;4998599;28;20164;-76
2022/11/30 10:51:25;;;;;;;7.43;3.10;;;;;;;3.15;100.00;101453.34;4997058;28;20080;-75
2022/11/30 10:53:52;;;;;;;11.57;3.88;;;;;;;3.51;100.00;101538.91;4992011;28;20061;-76
2022/11/30 10:56:18;;;;;;;5.38;2.45;;;;;;;3.67;100.00;101531.81;5004095;28;20034;-75
2022/11/30 10:58:54;;;;;;;7.72;4.07;;;;;;;3.34;100.00;101548.47;5029829;28;20042;-76
2022/11/30 11:01:40;;;;;;;6.63;4.53;;;;;;;3.21;100.00;101550.41;5007299;28;20108;-75
2022/11/30 11:04:16;;;;;;;6.15;3.38;;;;;;;3.32;100.00;101576.03;5005907;28;20585;-78
2022/11/30 11:07:05;;;;;;;9.35;4.05;;;;;;;3.32;100.00;101542.31;5010333;28;20107;-77
2022/11/30 11:09:49;;;;;;;6.80;3.47;;;;;;;2.73;100.00;101440.13;4998468;28;20595;-80
2022/11/30 11:12:19;;;;;;;7.43;4.05;;;;;;;3.22;100.00;101508.97;4994614;28;20041;-84
2022/11/30 11:14:45;;;;;;;8.38;3.58;;;;;;;2.48;100.00;101381.06;4996759;28;20038;-84
2022/11/30 11:17:20;;;;;;;9.82;3.78;;;;;;;3.68;100.00;101538.81;5006440;28;20397;-80
2022/11/30 11:19:47;;;;;;;11.18;4.45;;;;;;;3.36;100.00;101523.50;4998805;28;20054;-80
2022/11/30 11:22:20;;;;;;;12.52;4.78;;;;;;;3.43;100.00;101541.94;4998918;28;20078;-77
2022/11/30 11:24:48;;;;;;;7.38;3.63;;;;;;;3.57;100.00;101546.06;5004983;28;20510;-77
2022/11/30 11:27:27;;;;;;;10.30;5.03;;;;;;;3.73;100.00;101547.69;5002823;28;20100;-78